createdAt,value
2019-03-16T00:01:33.396Z,6.90
2019-03-16T00:04:01.082Z,7.00
2019-03-16T00:06:28.705Z,7.00
2019-03-16T00:08:58.520Z,7.00
2019-03-16T00:11:26.139Z,7.00
2019-03-16T00:13:53.803Z,7.00
2019-03-16T00:16:24.579Z,7.00
2019-03-16T00:18:52.624Z,6.90
2019-03-16T00:21:20.276Z,6.90
2019-03-16T00:23:58.087Z,6.90
2019-03-16T00:26:17.333Z,6.80
2019-03-16T00:28:45.148Z,6.80
2019-03-16T00:31:12.831Z,6.80
2019-03-16T00:33:40.744Z,6.70
2019-03-16T00:36:09.419Z,6.90
2019-03-16T00:38:39.891Z,6.70
2019-03-16T00:41:07.558Z,6.70
2019-03-16T00:43:35.354Z,6.70
2019-03-16T00:46:03.586Z,6.80
2019-03-16T00:48:33.325Z,6.70
2019-03-16T00:51:01.206Z,6.70
2019-03-16T00:53:29.026Z,6.70
2019-03-16T00:55:56.819Z,6.60
2019-03-16T00:58:24.542Z,6.60
2019-03-16T01:00:52.576Z,6.60
2019-03-16T01:03:20.479Z,6.50
2019-03-16T01:05:48.257Z,6.50
2019-03-16T01:08:17.705Z,6.40
2019-03-16T01:10:45.611Z,6.50
2019-03-16T01:13:13.480Z,6.40
2019-03-16T01:15:41.344Z,6.40
2019-03-16T01:18:09.015Z,6.40
2019-03-16T01:20:36.656Z,6.50
2019-03-16T01:23:04.310Z,6.40
2019-03-16T01:25:33.606Z,6.40
2019-03-16T01:28:01.425Z,6.40
2019-03-16T01:30:29.057Z,6.40
2019-03-16T01:32:56.736Z,6.40
2019-03-16T01:35:24.486Z,6.40
2019-03-16T01:37:52.164Z,6.40
2019-03-16T01:40:25.881Z,6.50
2019-03-16T01:43:02.335Z,6.40
2019-03-16T01:45:32.439Z,6.50
2019-03-16T01:48:04.728Z,6.50
2019-03-16T01:50:32.326Z,6.40
2019-03-16T01:52:59.943Z,6.40
2019-03-16T01:55:27.584Z,6.50
2019-03-16T01:57:56.645Z,6.50
2019-03-16T02:00:24.224Z,6.40
2019-03-16T02:02:55.507Z,6.40
2019-03-16T02:05:21.420Z,6.40
2019-03-16T02:07:56.336Z,6.40
2019-03-16T02:10:24.172Z,6.50
2019-03-16T02:12:54.267Z,6.40
2019-03-16T02:15:21.889Z,6.40
2019-03-16T02:17:52.951Z,6.40
2019-03-16T02:20:22.625Z,6.30
2019-03-16T02:22:50.213Z,6.40
2019-03-16T02:25:17.952Z,6.30
2019-03-16T02:27:45.620Z,6.30
2019-03-16T02:30:13.345Z,6.30
2019-03-16T02:32:41.566Z,6.30
2019-03-16T02:35:09.406Z,6.30
2019-03-16T02:37:37.004Z,6.20
2019-03-16T02:40:05.080Z,6.20
2019-03-16T02:42:32.679Z,6.30
2019-03-16T02:45:00.524Z,6.20
2019-03-16T02:47:28.305Z,6.20
2019-03-16T02:49:56.011Z,6.20
2019-03-16T02:52:23.576Z,6.20
2019-03-16T02:54:51.507Z,6.20
2019-03-16T02:57:19.104Z,6.10
2019-03-16T02:59:46.824Z,6.10
2019-03-16T03:02:14.535Z,6.20
2019-03-16T03:04:45.729Z,6.10
2019-03-16T03:07:11.513Z,6.00
2019-03-16T03:09:39.483Z,6.00
2019-03-16T03:12:07.139Z,6.00
2019-03-16T03:14:34.777Z,6.00
2019-03-16T03:17:02.426Z,5.90
2019-03-16T03:19:29.989Z,6.00
2019-03-16T03:21:57.543Z,5.90
2019-03-16T03:24:25.384Z,5.90
2019-03-16T03:26:53.028Z,6.00
2019-03-16T03:29:21.080Z,5.90
2019-03-16T03:31:48.978Z,6.00
2019-03-16T03:34:16.619Z,5.90
2019-03-16T03:36:44.183Z,6.00
2019-03-16T03:39:11.875Z,6.00
2019-03-16T03:41:39.454Z,6.00
2019-03-16T03:44:07.049Z,6.00
2019-03-16T03:46:34.980Z,6.00
2019-03-16T03:49:02.580Z,5.90
2019-03-16T03:51:32.974Z,6.00
2019-03-16T03:54:01.044Z,6.00
2019-03-16T03:56:28.620Z,6.00
2019-03-16T03:58:56.211Z,6.00
2019-03-16T04:01:23.968Z,6.00
2019-03-16T04:03:51.573Z,6.00
2019-03-16T04:06:19.213Z,6.00
2019-03-16T04:08:46.812Z,6.00
2019-03-16T04:11:14.416Z,6.00
2019-03-16T04:13:41.990Z,6.00
2019-03-16T04:16:09.711Z,6.00
2019-03-16T04:18:37.359Z,6.00
2019-03-16T04:21:05.676Z,6.00
2019-03-16T04:23:33.325Z,6.00
2019-03-16T04:26:00.991Z,5.90
2019-03-16T04:28:28.835Z,5.90
2019-03-16T04:30:56.472Z,5.90
2019-03-16T04:33:24.121Z,5.90
2019-03-16T04:35:54.790Z,5.90
2019-03-16T04:38:23.104Z,5.90
2019-03-16T04:40:50.776Z,5.90
2019-03-16T04:43:18.398Z,5.80
2019-03-16T04:45:46.052Z,5.90
2019-03-16T04:48:13.655Z,5.90
2019-03-16T04:50:41.350Z,5.90
2019-03-16T04:53:12.253Z,5.90
2019-03-16T04:55:39.831Z,5.90
2019-03-16T04:58:07.464Z,5.90
2019-03-16T05:00:35.139Z,5.80
2019-03-16T05:03:02.762Z,5.90
2019-03-16T05:05:30.353Z,5.90
2019-03-16T05:07:58.014Z,5.90
2019-03-16T05:10:25.611Z,5.90
2019-03-16T05:12:53.254Z,5.90
2019-03-16T05:15:20.998Z,5.90
2019-03-16T05:17:48.636Z,5.90
2019-03-16T05:20:16.454Z,6.00
2019-03-16T05:22:44.050Z,5.90
2019-03-16T05:25:11.650Z,6.00
2019-03-16T05:27:39.250Z,6.00
2019-03-16T05:30:08.245Z,6.00
2019-03-16T05:32:38.403Z,6.00
2019-03-16T05:35:06.167Z,5.90
2019-03-16T05:37:34.087Z,5.90
2019-03-16T05:40:02.679Z,6.00
2019-03-16T05:42:30.312Z,6.00
2019-03-16T05:44:58.309Z,6.00
2019-03-16T05:47:25.886Z,6.00
2019-03-16T05:49:53.506Z,6.10
2019-03-16T05:52:22.179Z,6.10
2019-03-16T05:54:49.815Z,6.00
2019-03-16T05:57:17.455Z,6.00
2019-03-16T05:59:45.177Z,6.00
2019-03-16T06:02:12.777Z,6.10
2019-03-16T06:04:40.371Z,6.10
2019-03-16T06:07:10.493Z,6.10
2019-03-16T06:09:38.135Z,6.10
2019-03-16T06:12:05.776Z,6.10
2019-03-16T06:14:33.519Z,6.10
2019-03-16T06:17:01.935Z,6.10
2019-03-16T06:19:29.575Z,6.10
2019-03-16T06:21:57.602Z,6.10
2019-03-16T06:24:28.241Z,6.10
2019-03-16T06:26:55.944Z,6.10
2019-03-16T06:29:23.749Z,6.10
2019-03-16T06:31:51.370Z,6.10
2019-03-16T06:34:18.936Z,6.20
2019-03-16T06:36:46.650Z,6.20
2019-03-16T06:39:23.205Z,6.20
2019-03-16T06:41:50.983Z,6.20
2019-03-16T06:44:18.768Z,6.20
2019-03-16T06:46:46.343Z,6.20
2019-03-16T06:49:17.793Z,6.30
2019-03-16T06:51:46.346Z,6.20
2019-03-16T06:54:15.367Z,6.20
2019-03-16T06:56:45.323Z,6.30
2019-03-16T06:59:13.827Z,6.10
2019-03-16T07:01:41.855Z,6.20
2019-03-16T07:04:10.179Z,6.30
2019-03-16T07:06:39.132Z,6.40
2019-03-16T07:09:07.698Z,6.30
2019-03-16T07:11:35.402Z,6.30
2019-03-16T07:14:06.386Z,6.40
2019-03-16T07:16:34.119Z,6.40
2019-03-16T07:19:02.128Z,6.50
2019-03-16T07:21:29.846Z,6.50
2019-03-16T07:23:57.671Z,6.40
2019-03-16T07:26:25.963Z,6.40
2019-03-16T07:28:53.607Z,6.40
2019-03-16T07:31:21.577Z,6.40
2019-03-16T07:33:49.463Z,6.40
2019-03-16T07:36:22.284Z,6.30
2019-03-16T07:38:53.116Z,6.20
2019-03-16T07:41:21.277Z,6.30
2019-03-16T07:43:49.499Z,6.30
2019-03-16T07:46:17.193Z,6.30
2019-03-16T07:48:47.191Z,6.30
2019-03-16T07:51:14.798Z,6.30
2019-03-16T07:53:42.457Z,6.40
2019-03-16T07:56:10.602Z,6.50
2019-03-16T07:58:38.259Z,6.40
2019-03-16T08:01:06.434Z,6.50
2019-03-16T08:03:34.799Z,6.50
2019-03-16T08:06:02.659Z,6.60
2019-03-16T08:08:30.453Z,6.60
2019-03-16T08:10:58.191Z,6.70
2019-03-16T08:13:26.314Z,6.70
2019-03-16T08:15:54.303Z,6.80
2019-03-16T08:18:22.458Z,6.70
2019-03-16T08:20:50.138Z,6.80
2019-03-16T08:23:18.542Z,6.90
2019-03-16T08:25:46.631Z,6.90
2019-03-16T08:28:14.473Z,7.00
2019-03-16T08:30:43.090Z,7.00
2019-03-16T08:33:13.729Z,7.10
2019-03-16T08:35:44.122Z,7.10
2019-03-16T08:38:12.793Z,7.20
2019-03-16T08:40:40.831Z,7.20
2019-03-16T08:43:08.586Z,7.30
2019-03-16T08:45:41.271Z,7.30
2019-03-16T08:48:22.764Z,7.40
2019-03-16T08:50:46.331Z,7.50
2019-03-16T08:53:19.549Z,7.60
2019-03-16T08:55:51.605Z,7.70
2019-03-16T08:58:26.621Z,7.80
2019-03-16T09:00:57.359Z,8.00
2019-03-16T09:03:42.671Z,8.20
2019-03-16T09:06:00.152Z,8.40
2019-03-16T09:08:27.744Z,8.50
2019-03-16T09:10:56.113Z,8.60
2019-03-16T09:13:25.402Z,8.60
2019-03-16T09:15:53.259Z,8.70
2019-03-16T09:18:21.032Z,8.70
2019-03-16T09:20:51.584Z,8.80
2019-03-16T09:23:22.527Z,8.90
2019-03-16T09:25:50.852Z,8.90
2019-03-16T09:28:19.204Z,8.90
2019-03-16T09:30:49.216Z,9.00
2019-03-16T09:33:17.358Z,9.00
2019-03-16T09:35:45.169Z,8.90
2019-03-16T09:38:14.499Z,9.00
2019-03-16T09:40:42.758Z,8.90
2019-03-16T09:43:11.132Z,9.00
2019-03-16T09:45:42.057Z,8.90
2019-03-16T09:48:09.991Z,9.00
2019-03-16T09:50:39.160Z,9.00
2019-03-16T09:53:09.770Z,9.00
2019-03-16T09:55:39.595Z,9.10
2019-03-16T09:58:11.031Z,9.10
2019-03-16T10:00:39.120Z,9.00
2019-03-16T10:03:06.855Z,9.10
2019-03-16T10:05:37.280Z,9.10
2019-03-16T10:08:07.079Z,9.10
2019-03-16T10:10:34.945Z,9.10
2019-03-16T10:13:03.803Z,9.20
2019-03-16T10:15:31.863Z,9.20
2019-03-16T10:18:02.439Z,9.30
2019-03-16T10:20:36.139Z,9.30
2019-03-16T10:23:18.733Z,9.30
2019-03-16T10:25:56.301Z,9.30
2019-03-16T10:28:24.125Z,9.30
2019-03-16T10:30:51.751Z,9.40
2019-03-16T10:33:20.511Z,9.40
2019-03-16T10:35:50.744Z,9.30
2019-03-16T10:38:21.500Z,9.30
2019-03-16T10:40:49.699Z,9.30
2019-03-16T10:43:17.511Z,9.30
2019-03-16T10:45:45.790Z,9.40
2019-03-16T10:48:17.024Z,9.40
2019-03-16T10:50:44.872Z,9.40
2019-03-16T10:53:12.458Z,9.40
2019-03-16T10:55:40.429Z,9.40
2019-03-16T10:58:11.257Z,9.60
2019-03-16T11:00:40.094Z,9.50
2019-03-16T11:03:14.807Z,9.50
2019-03-16T11:05:42.729Z,9.50
2019-03-16T11:08:13.398Z,9.40
2019-03-16T11:10:41.123Z,9.50
2019-03-16T11:13:09.299Z,9.50
2019-03-16T11:15:36.930Z,9.40
2019-03-16T11:18:05.143Z,9.30
2019-03-16T11:20:35.377Z,9.30
2019-03-16T11:23:09.699Z,9.40
2019-03-16T11:25:37.707Z,9.50
2019-03-16T11:28:07.789Z,9.60
2019-03-16T11:30:38.482Z,9.70
2019-03-16T11:33:13.218Z,9.80
2019-03-16T11:35:48.285Z,9.70
2019-03-16T11:38:21.151Z,9.70
2019-03-16T11:41:01.237Z,9.80
2019-03-16T11:43:31.241Z,9.80
2019-03-16T11:45:58.899Z,9.80
2019-03-16T11:48:26.846Z,9.80
2019-03-16T11:50:59.165Z,9.80
2019-03-16T11:53:31.178Z,9.90
2019-03-16T11:56:03.249Z,10.00
2019-03-16T11:58:44.319Z,10.00
2019-03-16T12:01:36.394Z,10.00
2019-03-16T12:04:05.354Z,10.00
2019-03-16T12:06:33.222Z,10.10
2019-03-16T12:09:04.951Z,10.10
2019-03-16T12:11:39.843Z,10.20
2019-03-16T12:14:07.542Z,10.30
2019-03-16T12:16:37.044Z,10.30
2019-03-16T12:19:06.151Z,10.40
2019-03-16T12:21:34.031Z,10.40
2019-03-16T12:24:01.701Z,10.40
2019-03-16T12:26:34.714Z,10.50
2019-03-16T12:29:02.574Z,10.70
2019-03-16T12:31:33.322Z,10.80
2019-03-16T12:34:00.951Z,10.80
2019-03-16T12:36:28.969Z,10.60
2019-03-16T12:38:57.095Z,10.50
2019-03-16T12:41:24.838Z,10.40
2019-03-16T12:43:53.204Z,10.30
2019-03-16T12:46:22.359Z,10.20
2019-03-16T12:48:50.299Z,10.10
2019-03-16T12:51:18.425Z,10.10
2019-03-16T12:53:51.243Z,10.00
2019-03-16T12:56:22.627Z,10.00
2019-03-16T12:58:50.576Z,10.10
2019-03-16T13:01:19.420Z,10.20
2019-03-16T13:03:52.557Z,10.00
2019-03-16T13:06:22.173Z,10.00
2019-03-16T13:08:50.080Z,10.00
2019-03-16T13:11:20.139Z,10.10
2019-03-16T13:13:47.784Z,10.00
2019-03-16T13:16:15.754Z,9.90
2019-03-16T13:18:43.502Z,9.90
2019-03-16T13:21:11.328Z,9.90
2019-03-16T13:23:38.974Z,10.10
2019-03-16T13:26:06.824Z,10.20
2019-03-16T13:28:40.762Z,10.20
2019-03-16T13:31:08.431Z,10.20
2019-03-16T13:33:42.435Z,10.10
2019-03-16T13:36:10.098Z,10.10
2019-03-16T13:38:37.887Z,10.10
2019-03-16T13:41:08.626Z,10.10
2019-03-16T13:43:41.267Z,10.10
2019-03-16T13:46:09.276Z,10.20
2019-03-16T13:48:36.939Z,10.30
2019-03-16T13:51:06.742Z,10.10
2019-03-16T13:53:34.638Z,10.10
2019-03-16T13:56:02.651Z,10.10
2019-03-16T13:58:30.312Z,10.00
2019-03-16T14:01:00.616Z,10.20
2019-03-16T14:03:31.025Z,10.10
2019-03-16T14:05:59.287Z,10.10
2019-03-16T14:08:27.333Z,10.10
2019-03-16T14:11:01.200Z,10.10
2019-03-16T14:13:29.436Z,10.20
2019-03-16T14:15:59.824Z,10.00
2019-03-16T14:18:27.702Z,10.00
2019-03-16T14:20:55.660Z,10.00
2019-03-16T14:23:24.001Z,10.10
2019-03-16T14:25:52.076Z,10.20
2019-03-16T14:28:22.503Z,10.20
2019-03-16T14:30:55.357Z,10.20
2019-03-16T14:33:32.684Z,10.10
2019-03-16T14:36:00.821Z,9.90
2019-03-16T14:38:31.373Z,9.90
2019-03-16T14:40:59.289Z,9.70
2019-03-16T14:43:27.092Z,9.70
2019-03-16T14:45:54.826Z,9.80
2019-03-16T14:48:22.686Z,9.70
2019-03-16T14:50:52.081Z,9.80
2019-03-16T14:53:21.980Z,9.70
2019-03-16T14:55:49.911Z,9.70
2019-03-16T14:58:17.493Z,9.70
2019-03-16T15:00:45.272Z,9.60
2019-03-16T15:03:13.311Z,9.50
2019-03-16T15:05:40.933Z,9.50
2019-03-16T15:08:08.762Z,9.40
2019-03-16T15:10:38.130Z,9.40
2019-03-16T15:13:05.978Z,9.40
2019-03-16T15:15:37.183Z,9.30
2019-03-16T15:18:04.822Z,9.20
2019-03-16T15:20:32.800Z,9.30
2019-03-16T15:23:00.587Z,9.20
2019-03-16T15:25:28.274Z,9.20
2019-03-16T15:27:55.925Z,9.20
2019-03-16T15:30:25.972Z,9.20
2019-03-16T15:32:53.718Z,9.10
2019-03-16T15:35:21.353Z,9.20
2019-03-16T15:37:49.035Z,9.20
2019-03-16T15:40:16.746Z,9.20
2019-03-16T15:42:44.839Z,9.20
2019-03-16T15:45:17.247Z,9.20
2019-03-16T15:47:45.271Z,9.20
2019-03-16T15:50:14.901Z,9.30
2019-03-16T15:52:42.656Z,9.20
2019-03-16T15:55:11.850Z,9.10
2019-03-16T15:57:42.920Z,9.10
2019-03-16T16:00:19.136Z,9.20
2019-03-16T16:02:46.726Z,9.10
2019-03-16T16:05:14.604Z,9.10
2019-03-16T16:07:42.685Z,9.10
2019-03-16T16:10:13.371Z,9.10
2019-03-16T16:12:42.962Z,9.10
2019-03-16T16:15:12.810Z,9.00
2019-03-16T16:17:40.396Z,9.00
2019-03-16T16:20:11.569Z,9.00
2019-03-16T16:22:39.766Z,9.00
2019-03-16T16:25:09.202Z,9.00
2019-03-16T16:27:39.462Z,9.10
2019-03-16T16:30:12.606Z,9.00
2019-03-16T16:32:40.366Z,9.00
2019-03-16T16:35:08.542Z,9.00
2019-03-16T16:37:39.800Z,9.00
2019-03-16T16:40:12.559Z,9.00
2019-03-16T16:42:48.971Z,9.00
2019-03-16T16:45:16.667Z,9.00
2019-03-16T16:47:44.366Z,9.00
2019-03-16T16:50:13.090Z,9.00
2019-03-16T16:52:40.734Z,9.00
2019-03-16T16:55:09.486Z,9.10
2019-03-16T16:57:38.846Z,9.00
2019-03-16T17:00:12.418Z,9.00
2019-03-16T17:02:40.485Z,9.00
2019-03-16T17:05:11.209Z,9.00
2019-03-16T17:07:41.558Z,9.00
2019-03-16T17:10:17.712Z,9.00
2019-03-16T17:12:46.213Z,9.00
2019-03-16T17:15:13.966Z,9.10
2019-03-16T17:17:42.915Z,9.00
2019-03-16T17:20:14.053Z,9.00
2019-03-16T17:22:41.978Z,8.90
2019-03-16T17:25:13.767Z,9.00
2019-03-16T17:27:45.250Z,9.00
2019-03-16T17:30:15.476Z,9.00
2019-03-16T17:32:48.193Z,8.90
2019-03-16T17:35:15.890Z,9.00
2019-03-16T17:37:47.211Z,9.00
2019-03-16T17:40:14.987Z,9.00
2019-03-16T17:42:42.592Z,9.00
2019-03-16T17:45:10.564Z,8.90
2019-03-16T17:47:38.215Z,8.90
2019-03-16T17:50:06.312Z,8.90
2019-03-16T17:52:37.090Z,8.90
2019-03-16T17:55:09.785Z,8.90
2019-03-16T17:57:47.430Z,8.90
2019-03-16T18:00:24.337Z,8.90
2019-03-16T18:02:52.753Z,8.90
2019-03-16T18:05:20.641Z,8.80
2019-03-16T18:07:50.448Z,8.90
2019-03-16T18:10:18.208Z,8.90
2019-03-16T18:12:45.909Z,8.90
2019-03-16T18:15:13.661Z,8.90
2019-03-16T18:17:41.522Z,8.90
2019-03-16T18:20:10.488Z,8.90
2019-03-16T18:22:38.272Z,8.90
2019-03-16T18:25:07.559Z,8.90
2019-03-16T18:27:35.235Z,8.90
2019-03-16T18:30:03.152Z,8.90
2019-03-16T18:32:32.608Z,8.90
2019-03-16T18:35:00.362Z,8.90
2019-03-16T18:37:28.048Z,9.00
2019-03-16T18:39:58.137Z,8.90
2019-03-16T18:42:27.901Z,8.90
2019-03-16T18:44:55.406Z,8.90
2019-03-16T18:47:23.532Z,8.90
2019-03-16T18:49:51.267Z,8.80
2019-03-16T18:52:20.707Z,8.80
2019-03-16T18:54:56.181Z,8.80
2019-03-16T18:57:26.534Z,8.70
2019-03-16T18:59:54.700Z,8.70
2019-03-16T19:02:25.474Z,8.70
2019-03-16T19:04:58.454Z,8.70
2019-03-16T19:07:31.512Z,8.60
2019-03-16T19:09:59.801Z,8.60
2019-03-16T19:12:27.688Z,8.50
2019-03-16T19:14:55.320Z,8.50
2019-03-16T19:17:24.373Z,8.60
2019-03-16T19:19:57.064Z,8.50
2019-03-16T19:22:26.247Z,8.50
2019-03-16T19:24:54.030Z,8.40
2019-03-16T19:27:40.755Z,8.40
2019-03-16T19:30:11.168Z,8.40
2019-03-16T19:32:41.850Z,8.40
2019-03-16T19:35:11.791Z,8.40
2019-03-16T19:37:43.907Z,8.40
2019-03-16T19:40:10.108Z,8.30
2019-03-16T19:42:37.901Z,8.30
2019-03-16T19:45:12.276Z,8.30
2019-03-16T19:47:40.172Z,8.20
2019-03-16T19:50:08.219Z,8.30
2019-03-16T19:52:36.160Z,8.20
2019-03-16T19:55:09.309Z,8.20
2019-03-16T19:57:39.569Z,8.20
2019-03-16T20:00:11.587Z,8.20
2019-03-16T20:02:49.807Z,8.20
2019-03-16T20:05:13.619Z,8.30
2019-03-16T20:07:50.458Z,8.20
2019-03-16T20:10:18.738Z,8.20
2019-03-16T20:12:46.737Z,8.20
2019-03-16T20:15:14.852Z,8.20
2019-03-16T20:17:43.178Z,8.20
2019-03-16T20:20:11.582Z,8.20
2019-03-16T20:22:57.730Z,8.20
2019-03-16T20:25:28.638Z,8.30
2019-03-16T20:28:05.475Z,8.20
2019-03-16T20:30:40.385Z,8.20
2019-03-16T20:33:11.504Z,8.20
2019-03-16T20:35:42.197Z,8.30
2019-03-16T20:38:11.303Z,8.20
2019-03-16T20:40:46.288Z,8.20
2019-03-16T20:43:17.086Z,8.20
2019-03-16T20:45:46.295Z,8.10
2019-03-16T20:48:16.826Z,8.10
2019-03-16T20:50:47.518Z,8.10
2019-03-16T20:53:18.126Z,8.10
2019-03-16T20:55:50.193Z,8.10
2019-03-16T20:58:20.140Z,8.30
2019-03-16T21:00:48.068Z,8.30
2019-03-16T21:03:16.569Z,8.20
2019-03-16T21:05:44.395Z,8.10
2019-03-16T21:08:13.803Z,8.20
2019-03-16T21:10:42.331Z,8.10
2019-03-16T21:13:10.215Z,8.10
2019-03-16T21:15:57.093Z,8.10
2019-03-16T21:18:28.354Z,8.10
2019-03-16T21:21:26.051Z,8.10
2019-03-16T21:23:56.736Z,8.20
2019-03-16T21:26:24.779Z,8.20
2019-03-16T21:28:57.633Z,8.30
2019-03-16T21:31:25.616Z,8.30
2019-03-16T21:33:53.262Z,8.30
2019-03-16T21:36:21.708Z,8.30
2019-03-16T21:38:49.853Z,8.30
2019-03-16T21:41:17.478Z,8.30
2019-03-16T21:43:45.277Z,8.40
2019-03-16T21:46:15.779Z,8.40
2019-03-16T21:48:49.355Z,8.40
2019-03-16T21:51:17.486Z,8.40
2019-03-16T21:53:47.294Z,8.30
2019-03-16T21:56:37.574Z,8.30
2019-03-16T21:59:10.603Z,8.30
2019-03-16T22:01:39.791Z,8.20
2019-03-16T22:04:10.846Z,8.30
2019-03-16T22:06:39.748Z,8.20
2019-03-16T22:09:07.652Z,8.20
2019-03-16T22:11:40.510Z,8.20
2019-03-16T22:14:08.373Z,8.10
2019-03-16T22:16:36.321Z,8.20
2019-03-16T22:19:14.503Z,8.20
2019-03-16T22:21:45.093Z,8.20
2019-03-16T22:24:17.708Z,8.40
2019-03-16T22:26:45.748Z,8.40
2019-03-16T22:29:16.516Z,8.40
2019-03-16T22:31:48.984Z,8.30
2019-03-16T22:34:19.171Z,8.30
2019-03-16T22:36:49.977Z,8.20
2019-03-16T22:39:20.027Z,8.20
2019-03-16T22:41:50.574Z,8.20
2019-03-16T22:44:21.134Z,8.30
2019-03-16T22:46:48.800Z,8.30
2019-03-16T22:49:16.734Z,8.20
2019-03-16T22:51:44.707Z,8.20
2019-03-16T22:54:12.450Z,8.10
2019-03-16T22:56:40.271Z,8.00
2019-03-16T22:59:10.377Z,8.10
2019-03-16T23:01:42.849Z,8.00
2019-03-16T23:04:10.829Z,8.10
2019-03-16T23:06:41.625Z,8.00
2019-03-16T23:09:16.512Z,8.00
2019-03-16T23:11:44.195Z,8.00
2019-03-16T23:14:14.357Z,8.00
2019-03-16T23:16:42.440Z,8.00
2019-03-16T23:19:10.086Z,8.00
2019-03-16T23:21:40.121Z,8.00
2019-03-16T23:24:12.340Z,7.90
2019-03-16T23:26:40.181Z,7.90
2019-03-16T23:29:07.812Z,7.80
2019-03-16T23:31:35.687Z,7.70
2019-03-16T23:34:03.445Z,7.70
2019-03-16T23:36:34.443Z,7.70
2019-03-16T23:39:03.092Z,7.80
2019-03-16T23:41:33.224Z,7.70
2019-03-16T23:44:08.318Z,7.70
2019-03-16T23:46:38.285Z,7.70
2019-03-16T23:49:06.309Z,7.80
2019-03-16T23:51:36.733Z,7.90
2019-03-16T23:54:04.331Z,7.90
2019-03-16T23:56:31.919Z,7.80
2019-03-16T23:59:04.690Z,7.90
